Time;durP1;ratioP1;P1;durP2;ratioP2;P2;SDS_P1;SDS_P2;PMS_P1;PMS_P2;Temp;Humidity;BMP_temperature;BMP_pressure;BME280_temperature;BME280_humidity;BME280_pressure;Samples;Min_cycle;Max_cycle;Signal;HPM_P1;HPM_P2
2023/12/21 00:02:21;;;;;;;32.75;18.35;;;4.60;71.80;;;;;;6341485;22;20006;-66
2023/12/21 00:04:47;;;;;;;34.20;18.17;;;4.60;71.80;;;;;;6341480;22;19995;-67
2023/12/21 00:07:13;;;;;;;37.75;18.95;;;4.60;71.80;;;;;;6341359;22;19999;-67
2023/12/21 00:09:39;;;;;;;34.53;18.45;;;4.60;72.00;;;;;;6341466;22;19995;-67
2023/12/21 00:12:05;;;;;;;39.60;19.90;;;4.60;71.90;;;;;;6341901;22;19995;-67
2023/12/21 00:14:31;;;;;;;40.83;21.02;;;4.60;71.70;;;;;;6341240;22;20003;-67
2023/12/21 00:16:57;;;;;;;40.67;21.00;;;4.60;72.00;;;;;;6341403;22;20025;-66
2023/12/21 00:19:23;;;;;;;36.83;19.35;;;4.60;71.80;;;;;;6341705;22;19999;-66
2023/12/21 00:21:49;;;;;;;37.22;20.45;;;4.60;71.70;;;;;;6341899;22;20022;-67
2023/12/21 00:24:15;;;;;;;34.28;19.85;;;4.60;71.70;;;;;;6342307;22;20376;-67
2023/12/21 00:26:41;;;;;;;41.58;21.35;;;4.60;71.70;;;;;;6341995;22;19998;-66
2023/12/21 00:29:08;;;;;;;41.00;21.67;;;4.60;71.70;;;;;;6341315;22;20070;-66
2023/12/21 00:31:34;;;;;;;35.65;20.95;;;4.50;71.60;;;;;;6342140;22;20052;-67
2023/12/21 00:34:00;;;;;;;43.10;24.63;;;4.50;71.50;;;;;;6343894;22;20010;-66
2023/12/21 00:36:26;;;;;;;41.75;22.05;;;4.40;71.20;;;;;;6343007;22;20014;-66
2023/12/21 00:38:52;;;;;;;40.60;21.98;;;4.40;71.50;;;;;;6343210;22;20003;-67
2023/12/21 00:41:18;;;;;;;40.35;20.52;;;4.40;71.70;;;;;;6343821;22;20003;-67
2023/12/21 00:43:44;;;;;;;41.42;20.60;;;4.30;71.50;;;;;;6343034;22;20003;-66
2023/12/21 00:46:10;;;;;;;33.03;19.13;;;4.30;71.40;;;;;;6343097;22;20403;-67
2023/12/21 00:48:36;;;;;;;33.35;18.23;;;4.20;71.60;;;;;;6315876;22;20085;-66
2023/12/21 00:51:02;;;;;;;34.15;19.80;;;4.20;71.90;;;;;;6343065;22;20296;-67
2023/12/21 00:53:28;;;;;;;39.55;21.45;;;4.30;71.90;;;;;;6342654;22;20010;-66
2023/12/21 00:55:54;;;;;;;41.85;23.92;;;4.20;72.00;;;;;;6342888;22;20006;-64
2023/12/21 00:58:20;;;;;;;33.70;20.63;;;4.20;71.90;;;;;;6343619;22;20369;-67
2023/12/21 01:00:46;;;;;;;36.97;20.67;;;4.20;72.10;;;;;;6342935;22;20006;-68
2023/12/21 01:03:12;;;;;;;38.00;19.52;;;4.20;71.90;;;;;;6343512;22;20010;-65
2023/12/21 01:05:39;;;;;;;32.92;19.33;;;4.20;71.90;;;;;;6343603;22;20002;-67
2023/12/21 01:08:05;;;;;;;34.15;19.08;;;4.20;71.80;;;;;;6342883;22;19999;-67
2023/12/21 01:10:33;;;;;;;36.75;20.65;;;4.20;71.80;;;;;;6342876;22;20003;-67
2023/12/21 01:12:59;;;;;;;39.53;20.98;;;4.10;71.90;;;;;;6342631;22;20037;-64
2023/12/21 01:15:26;;;;;;;33.05;19.73;;;4.10;71.60;;;;;;6342982;22;20007;-64
2023/12/21 01:17:52;;;;;;;38.08;20.05;;;4.10;71.40;;;;;;6342684;22;20013;-64
2023/12/21 01:20:18;;;;;;;31.20;17.40;;;4.00;71.50;;;;;;6342733;22;19999;-67
2023/12/21 01:22:44;;;;;;;35.17;19.13;;;4.00;71.80;;;;;;6342930;22;20473;-64
2023/12/21 01:25:10;;;;;;;34.05;19.58;;;3.90;71.90;;;;;;6342745;22;20309;-64
2023/12/21 01:27:36;;;;;;;32.65;18.63;;;3.90;71.70;;;;;;6343336;22;20049;-65
2023/12/21 01:30:02;;;;;;;29.63;16.77;;;3.90;71.80;;;;;;6342712;22;20423;-67
2023/12/21 01:32:28;;;;;;;33.70;18.23;;;3.90;71.90;;;;;;6342810;22;20007;-64
2023/12/21 01:34:54;;;;;;;32.83;17.40;;;3.80;72.00;;;;;;6342496;22;20531;-67
2023/12/21 01:37:19;;;;;;;31.52;18.48;;;3.80;72.10;;;;;;6343304;22;20037;-66
2023/12/21 01:39:45;;;;;;;32.25;17.63;;;3.80;72.40;;;;;;6343255;22;20051;-67
2023/12/21 01:42:12;;;;;;;32.60;18.40;;;3.80;72.00;;;;;;6342152;22;20112;-66
2023/12/21 01:44:37;;;;;;;32.13;17.05;;;3.80;72.10;;;;;;6343096;22;19995;-67
2023/12/21 01:47:04;;;;;;;30.40;17.30;;;3.80;72.10;;;;;;6342549;22;20052;-67
2023/12/21 01:49:30;;;;;;;34.08;18.90;;;3.90;72.20;;;;;;6342552;22;20006;-67
2023/12/21 01:51:56;;;;;;;34.75;18.08;;;3.90;72.00;;;;;;6342070;22;20066;-67
2023/12/21 01:54:23;;;;;;;28.10;15.43;;;3.90;71.50;;;;;;6315248;22;20412;-67
2023/12/21 01:56:49;;;;;;;32.60;17.17;;;3.80;71.60;;;;;;6343061;22;20011;-67
2023/12/21 01:59:15;;;;;;;29.92;16.85;;;3.70;71.80;;;;;;6342329;22;20014;-67
2023/12/21 02:01:41;;;;;;;31.35;16.45;;;3.70;71.80;;;;;;6342656;22;19999;-67
2023/12/21 02:04:08;;;;;;;29.85;15.75;;;3.70;72.20;;;;;;6342433;22;20053;-66
2023/12/21 02:06:34;;;;;;;31.30;17.25;;;3.70;72.20;;;;;;6315123;22;20098;-67
2023/12/21 02:09:01;;;;;;;35.17;18.00;;;3.80;72.30;;;;;;6342313;22;20065;-67
2023/12/21 02:11:26;;;;;;;30.90;16.27;;;3.80;72.10;;;;;;6342220;22;20003;-67
2023/12/21 02:13:52;;;;;;;25.00;15.10;;;3.70;72.20;;;;;;6342191;22;20044;-66
2023/12/21 02:16:52;;;;;;;29.42;16.95;;;3.80;72.20;;;;;;6342825;22;19998;-67
2023/12/21 02:19:20;;;;;;;28.60;13.98;;;3.70;72.20;;;;;;6315500;22;19999;-67
2023/12/21 02:21:47;;;;;;;26.27;16.15;;;3.80;72.20;;;;;;6342766;22;20027;-64
2023/12/21 02:24:17;;;;;;;32.80;15.57;;;3.70;72.30;;;;;;6342880;22;20437;-67
2023/12/21 02:26:43;;;;;;;26.85;13.98;;;3.80;72.20;;;;;;6342856;22;20397;-67
2023/12/21 02:29:09;;;;;;;25.42;14.73;;;3.80;72.10;;;;;;6342496;22;20083;-67
2023/12/21 02:31:37;;;;;;;25.92;14.05;;;3.70;72.10;;;;;;6342694;22;20296;-65
2023/12/21 02:34:06;;;;;;;27.48;14.35;;;3.70;71.90;;;;;;6342151;22;20013;-65
2023/12/21 02:36:32;;;;;;;26.08;13.55;;;3.70;72.00;;;;;;6342062;22;20007;-66
2023/12/21 02:38:58;;;;;;;24.27;13.73;;;3.60;72.20;;;;;;6342775;22;20024;-67
2023/12/21 02:41:24;;;;;;;22.08;13.15;;;3.70;72.50;;;;;;6342731;22;20073;-67
2023/12/21 02:43:50;;;;;;;26.27;13.27;;;3.70;72.30;;;;;;6342019;22;20076;-67
2023/12/21 02:46:18;;;;;;;24.65;13.65;;;3.60;72.20;;;;;;6342032;22;20010;-67
2023/12/21 02:48:45;;;;;;;25.23;12.70;;;3.60;72.30;;;;;;6342376;22;20292;-66
2023/12/21 02:51:11;;;;;;;22.20;12.77;;;3.60;72.40;;;;;;6342067;22;20002;-67
2023/12/21 02:53:37;;;;;;;25.10;14.35;;;3.60;72.40;;;;;;6342258;22;20015;-66
2023/12/21 02:56:04;;;;;;;25.50;13.75;;;3.60;72.30;;;;;;6342570;22;20006;-67
2023/12/21 02:58:30;;;;;;;26.92;13.60;;;3.60;72.40;;;;;;6342595;22;20003;-66
2023/12/21 03:00:56;;;;;;;27.13;13.15;;;3.60;72.20;;;;;;6341966;22;19995;-66
2023/12/21 03:03:22;;;;;;;23.13;11.20;;;3.60;72.50;;;;;;6342468;22;20265;-67
2023/12/21 03:05:48;;;;;;;25.30;12.80;;;3.50;72.50;;;;;;6342208;22;20026;-67
2023/12/21 03:08:14;;;;;;;20.50;11.65;;;3.50;72.50;;;;;;6341890;22;20086;-67
2023/12/21 03:10:40;;;;;;;25.02;13.52;;;3.60;72.50;;;;;;6341856;22;20009;-67
2023/12/21 03:13:05;;;;;;;23.15;13.60;;;3.50;72.40;;;;;;6341760;22;20003;-66
2023/12/21 03:15:31;;;;;;;23.13;11.80;;;3.50;72.20;;;;;;6341712;22;20266;-66
2023/12/21 03:17:57;;;;;;;19.25;11.20;;;3.50;72.30;;;;;;6341840;22;19999;-67
2023/12/21 03:20:23;;;;;;;22.20;12.15;;;3.50;72.20;;;;;;6342429;22;20021;-67
2023/12/21 03:22:50;;;;;;;20.98;11.27;;;3.50;72.30;;;;;;6341691;22;19996;-67
2023/12/21 03:25:16;;;;;;;21.30;11.32;;;3.40;72.20;;;;;;6342425;22;20440;-66
2023/12/21 03:27:42;;;;;;;17.40;10.88;;;3.40;72.30;;;;;;6341755;22;20037;-67
2023/12/21 03:30:08;;;;;;;20.85;11.93;;;3.40;72.20;;;;;;6342423;22;20002;-66
2023/12/21 03:32:36;;;;;;;20.52;10.55;;;3.40;72.40;;;;;;6342255;22;20003;-66
2023/12/21 03:35:03;;;;;;;22.08;11.07;;;3.40;72.40;;;;;;6341862;22;20031;-67
2023/12/21 03:37:29;;;;;;;18.63;10.02;;;3.40;72.50;;;;;;6342026;22;20281;-66
2023/12/21 03:39:56;;;;;;;20.73;10.70;;;3.40;72.60;;;;;;6341991;22;19999;-66
2023/12/21 03:42:22;;;;;;;19.25;11.85;;;3.40;72.70;;;;;;6341629;22;20400;-66
2023/12/21 03:44:48;;;;;;;19.40;10.50;;;3.40;72.70;;;;;;6341955;22;19994;-67
2023/12/21 03:47:14;;;;;;;20.67;11.27;;;3.40;72.60;;;;;;6342271;22;19995;-66
2023/12/21 03:49:41;;;;;;;21.42;12.13;;;3.40;72.60;;;;;;6342254;22;20006;-67
2023/12/21 03:52:06;;;;;;;18.85;10.18;;;3.40;72.70;;;;;;6341433;22;20023;-67
2023/12/21 03:54:32;;;;;;;18.30;10.60;;;3.50;72.60;;;;;;6341884;22;19991;-66
2023/12/21 03:56:59;;;;;;;21.13;11.40;;;3.40;72.70;;;;;;6342078;22;20277;-66
2023/12/21 03:59:25;;;;;;;21.63;10.77;;;3.40;72.60;;;;;;6342196;22;20323;-66
2023/12/21 04:01:52;;;;;;;19.17;11.52;;;3.50;72.80;;;;;;6341426;22;20452;-66
2023/12/21 04:04:18;;;;;;;21.00;11.13;;;3.50;72.70;;;;;;6342177;22;20010;-66
2023/12/21 04:06:44;;;;;;;18.52;10.50;;;3.40;72.60;;;;;;6342961;22;20097;-67
2023/12/21 04:09:10;;;;;;;21.10;10.40;;;3.40;72.80;;;;;;6343921;22;20003;-67
2023/12/21 04:11:36;;;;;;;24.75;12.90;;;3.40;72.90;;;;;;6343699;22;20007;-66
2023/12/21 04:14:02;;;;;;;21.35;11.20;;;3.40;72.70;;;;;;6343318;22;20017;-66
2023/12/21 04:16:29;;;;;;;21.15;11.50;;;3.40;72.80;;;;;;6343343;22;20078;-66
2023/12/21 04:18:55;;;;;;;21.40;11.55;;;3.40;73.00;;;;;;6343693;22;20010;-66
2023/12/21 04:21:21;;;;;;;20.77;12.20;;;3.40;73.10;;;;;;6343385;22;19999;-66
2023/12/21 04:23:47;;;;;;;22.60;11.02;;;3.40;73.30;;;;;;6343928;22;19999;-66
2023/12/21 04:26:22;;;;;;;18.35;9.82;;;3.40;72.90;;;;;;6343998;22;20070;-65
2023/12/21 04:28:51;;;;;;;23.30;11.38;;;3.30;72.80;;;;;;6343945;22;20009;-67
2023/12/21 04:31:21;;;;;;;21.02;11.52;;;3.40;73.00;;;;;;6343259;22;20438;-64
2023/12/21 04:33:50;;;;;;;22.67;12.95;;;3.30;73.30;;;;;;6343613;22;20381;-67
2023/12/21 04:36:16;;;;;;;27.13;15.90;;;3.30;73.10;;;;;;6315958;22;20003;-65
2023/12/21 04:38:42;;;;;;;21.40;12.32;;;3.30;73.60;;;;;;6343886;22;20084;-65
2023/12/21 04:41:08;;;;;;;22.15;12.82;;;3.30;73.70;;;;;;6343775;22;20422;-65
2023/12/21 04:43:34;;;;;;;20.85;10.52;;;3.30;73.60;;;;;;6343190;22;19991;-65
2023/12/21 04:46:00;;;;;;;23.10;11.27;;;3.30;73.50;;;;;;6343393;22;20007;-65
2023/12/21 04:48:26;;;;;;;19.85;11.25;;;3.30;73.40;;;;;;6343719;22;20003;-65
2023/12/21 04:50:52;;;;;;;23.50;11.63;;;3.30;73.40;;;;;;6343690;22;20009;-65
2023/12/21 04:53:18;;;;;;;19.63;10.95;;;3.30;73.40;;;;;;6342666;22;20010;-66
2023/12/21 04:55:45;;;;;;;20.35;11.68;;;3.30;73.40;;;;;;6315694;22;20011;-65
2023/12/21 04:58:11;;;;;;;18.95;11.70;;;3.30;73.40;;;;;;6343338;22;20003;-65
2023/12/21 05:00:40;;;;;;;21.73;11.93;;;3.30;73.30;;;;;;6342961;22;20059;-65
2023/12/21 05:03:06;;;;;;;22.23;10.70;;;3.30;73.40;;;;;;6343101;22;20002;-65
2023/12/21 05:05:32;;;;;;;18.27;10.20;;;3.30;73.40;;;;;;6342880;22;20003;-65
2023/12/21 05:07:58;;;;;;;18.60;10.07;;;3.30;73.50;;;;;;6342902;22;20063;-65
2023/12/21 05:10:24;;;;;;;17.17;10.05;;;3.30;73.40;;;;;;6343206;22;19999;-65
2023/12/21 05:12:50;;;;;;;22.40;10.82;;;3.30;73.30;;;;;;6343033;22;20018;-65
2023/12/21 05:15:16;;;;;;;17.45;9.88;;;3.30;73.30;;;;;;6343478;22;20273;-65
2023/12/21 05:17:42;;;;;;;23.13;11.48;;;3.30;73.30;;;;;;6342178;22;20412;-65
2023/12/21 05:20:09;;;;;;;20.92;10.73;;;3.30;73.50;;;;;;6343122;22;20026;-65
2023/12/21 05:22:35;;;;;;;18.88;10.32;;;3.30;73.60;;;;;;6342679;22;20396;-65
2023/12/21 05:25:01;;;;;;;20.40;10.35;;;3.30;73.20;;;;;;6342860;22;20007;-66
2023/12/21 05:27:27;;;;;;;21.08;10.07;;;3.30;73.40;;;;;;6342971;22;20301;-65
2023/12/21 05:29:53;;;;;;;22.55;11.05;;;3.30;73.30;;;;;;6342642;22;20423;-66
2023/12/21 05:32:19;;;;;;;20.23;9.85;;;3.30;73.10;;;;;;6342967;22;20086;-65
2023/12/21 05:34:46;;;;;;;20.63;10.82;;;3.30;73.10;;;;;;6342917;22;20034;-65
2023/12/21 05:37:11;;;;;;;21.83;11.70;;;3.20;73.00;;;;;;6343278;22;19999;-65
2023/12/21 05:39:38;;;;;;;18.92;10.00;;;3.20;72.60;;;;;;6342632;22;20460;-66
2023/12/21 05:42:04;;;;;;;20.98;9.60;;;3.10;72.60;;;;;;6343167;22;20002;-65
2023/12/21 05:44:30;;;;;;;19.00;10.05;;;3.00;72.60;;;;;;6342847;22;19994;-65
2023/12/21 05:46:56;;;;;;;21.08;9.05;;;3.00;72.60;;;;;;6342812;22;20003;-65
2023/12/21 05:49:22;;;;;;;20.95;10.32;;;3.00;73.00;;;;;;6342431;22;20007;-65
2023/12/21 05:51:48;;;;;;;17.63;10.32;;;3.00;73.00;;;;;;6342977;22;19998;-66
2023/12/21 05:54:15;;;;;;;18.73;9.77;;;3.00;73.10;;;;;;6342304;22;20079;-65
2023/12/21 05:56:42;;;;;;;19.55;10.48;;;3.10;73.30;;;;;;6342677;22;20026;-65
2023/12/21 05:59:10;;;;;;;19.80;10.48;;;3.00;73.30;;;;;;6342354;22;19999;-66
2023/12/21 06:01:36;;;;;;;16.60;9.15;;;3.10;73.40;;;;;;6315926;22;19995;-65
2023/12/21 06:04:02;;;;;;;19.05;8.45;;;3.00;73.50;;;;;;6342999;22;20021;-65
2023/12/21 06:06:28;;;;;;;14.65;8.48;;;3.10;73.30;;;;;;6342414;22;20125;-65
2023/12/21 06:08:54;;;;;;;17.50;8.93;;;3.10;73.20;;;;;;6342383;22;20037;-65
2023/12/21 06:11:20;;;;;;;18.25;9.02;;;3.10;73.00;;;;;;6342308;22;20405;-65
2023/12/21 06:13:45;;;;;;;18.08;8.88;;;3.10;72.90;;;;;;6342208;22;20048;-65
2023/12/21 06:16:11;;;;;;;18.75;9.25;;;3.00;72.90;;;;;;6342145;22;19999;-65
2023/12/21 06:18:39;;;;;;;16.52;8.20;;;3.00;72.60;;;;;;6342107;22;19999;-65
2023/12/21 06:21:05;;;;;;;15.05;8.13;;;2.90;72.80;;;;;;6342260;22;20007;-65
2023/12/21 06:23:31;;;;;;;14.60;8.45;;;2.90;73.00;;;;;;6342125;22;19995;-65
2023/12/21 06:25:57;;;;;;;20.23;10.18;;;2.90;73.20;;;;;;6342247;22;20003;-65
2023/12/21 06:28:23;;;;;;;24.25;11.52;;;3.00;73.10;;;;;;6342657;22;20007;-66
2023/12/21 06:30:49;;;;;;;25.08;13.05;;;2.90;73.30;;;;;;6342132;22;20314;-65
2023/12/21 06:33:15;;;;;;;19.40;10.90;;;2.90;73.10;;;;;;6314781;22;20037;-65
2023/12/21 06:35:41;;;;;;;16.63;9.73;;;2.90;73.00;;;;;;6342680;22;20277;-65
2023/12/21 06:38:08;;;;;;;23.65;13.07;;;2.90;73.00;;;;;;6342070;22;20033;-65
2023/12/21 06:40:38;;;;;;;21.40;11.80;;;2.90;73.40;;;;;;6342736;22;20048;-65
2023/12/21 06:43:04;;;;;;;16.65;9.82;;;2.90;73.00;;;;;;6342235;22;19995;-65
2023/12/21 06:45:30;;;;;;;21.08;10.60;;;2.90;72.80;;;;;;6342005;22;20338;-65
2023/12/21 06:48:00;;;;;;;18.90;11.40;;;2.90;73.00;;;;;;6342320;22;19998;-65
2023/12/21 06:50:28;;;;;;;19.92;11.63;;;2.80;73.30;;;;;;6342288;22;20026;-65
2023/12/21 06:52:54;;;;;;;23.42;12.48;;;2.90;73.10;;;;;;6341533;22;20022;-65
2023/12/21 06:55:21;;;;;;;26.50;12.07;;;2.80;72.80;;;;;;6341854;22;19999;-65
2023/12/21 06:57:47;;;;;;;20.58;12.48;;;2.80;72.60;;;;;;6341947;22;20396;-65
2023/12/21 07:00:13;;;;;;;20.77;12.27;;;2.80;72.50;;;;;;6342568;22;19994;-65
2023/12/21 07:02:39;;;;;;;24.88;12.23;;;2.70;72.60;;;;;;6341857;22;19998;-65
2023/12/21 07:05:07;;;;;;;23.48;12.30;;;2.70;72.50;;;;;;6341883;22;20006;-65
2023/12/21 07:07:33;;;;;;;24.85;12.00;;;2.70;72.90;;;;;;6341879;22;20003;-65
2023/12/21 07:09:59;;;;;;;20.50;10.98;;;2.80;73.10;;;;;;6342143;22;20029;-65
2023/12/21 07:12:27;;;;;;;23.10;12.55;;;2.80;73.20;;;;;;6341815;22;19994;-65
2023/12/21 07:14:53;;;;;;;20.30;11.10;;;2.80;73.00;;;;;;6342015;22;20023;-65
2023/12/21 07:17:19;;;;;;;23.75;12.50;;;2.80;72.60;;;;;;6341814;22;20052;-65
2023/12/21 07:19:45;;;;;;;21.02;10.55;;;2.80;72.40;;;;;;6342050;22;20332;-65
2023/12/21 07:22:11;;;;;;;20.92;10.75;;;2.80;72.60;;;;;;6341527;22;20392;-65
2023/12/21 07:24:38;;;;;;;16.88;9.75;;;2.80;72.90;;;;;;6309696;22;20059;-76
2023/12/21 07:27:05;;;;;;;21.55;12.00;;;2.80;73.30;;;;;;6341697;22;19999;-75
2023/12/21 07:29:31;;;;;;;21.77;11.73;;;2.90;73.60;;;;;;6342387;22;19995;-75
2023/12/21 07:31:58;;;;;;;21.83;12.73;;;2.90;73.80;;;;;;6342387;22;19999;-76
2023/12/21 07:34:24;;;;;;;22.48;11.15;;;2.90;73.50;;;;;;6341918;22;20442;-75
2023/12/21 07:36:51;;;;;;;24.38;12.57;;;3.00;73.60;;;;;;6342603;22;20385;-75
2023/12/21 07:39:17;;;;;;;23.35;12.60;;;3.00;73.90;;;;;;6342538;22;20406;-75
2023/12/21 07:41:43;;;;;;;51.67;22.42;;;3.10;73.80;;;;;;6341743;22;20002;-75
2023/12/21 07:44:09;;;;;;;44.83;20.83;;;3.20;74.10;;;;;;6342060;22;20067;-75
2023/12/21 07:46:35;;;;;;;39.92;18.73;;;3.30;74.20;;;;;;6342559;22;20372;-75
2023/12/21 07:49:01;;;;;;;39.10;17.88;;;3.40;73.90;;;;;;6342055;22;19999;-75
2023/12/21 07:51:27;;;;;;;29.90;15.90;;;3.40;73.90;;;;;;6342238;22;20002;-75
2023/12/21 07:53:53;;;;;;;28.58;16.40;;;3.50;73.80;;;;;;6342406;22;19995;-75
2023/12/21 07:56:19;;;;;;;42.88;19.20;;;3.60;73.90;;;;;;6342637;22;20013;-75
2023/12/21 07:58:46;;;;;;;34.45;17.88;;;3.70;73.60;;;;;;6342153;22;19995;-75
2023/12/21 08:01:12;;;;;;;38.88;18.42;;;3.80;73.80;;;;;;6342454;22;19999;-75
2023/12/21 08:03:38;;;;;;;31.60;16.35;;;3.90;73.80;;;;;;6342585;22;19999;-75
2023/12/21 08:06:04;;;;;;;27.52;15.27;;;4.00;73.90;;;;;;6342374;22;20440;-75
2023/12/21 08:08:30;;;;;;;31.45;15.32;;;4.10;73.70;;;;;;6315188;22;20007;-75
2023/12/21 08:10:57;;;;;;;33.55;16.98;;;4.20;73.70;;;;;;6343121;22;20280;-75
2023/12/21 08:13:23;;;;;;;29.25;16.42;;;4.30;73.60;;;;;;6343456;22;20002;-75
2023/12/21 08:15:49;;;;;;;29.83;15.55;;;4.40;73.60;;;;;;6350206;22;20002;-75
2023/12/21 08:18:17;;;;;;;26.75;15.55;;;4.50;73.70;;;;;;6314728;22;20095;-68
2023/12/21 08:20:47;;;;;;;29.23;16.88;;;4.70;73.60;;;;;;6341218;22;20400;-68
2023/12/21 08:23:13;;;;;;;32.88;16.58;;;4.80;73.50;;;;;;6341610;22;20384;-68
2023/12/21 08:25:39;;;;;;;35.30;17.88;;;4.90;73.50;;;;;;6341243;22;20007;-67
2023/12/21 08:28:05;;;;;;;32.42;17.67;;;5.00;73.40;;;;;;6341133;22;19995;-67
2023/12/21 08:30:31;;;;;;;32.50;17.75;;;5.00;73.40;;;;;;6341816;22;20048;-68
2023/12/21 08:32:57;;;;;;;40.33;23.10;;;5.10;73.50;;;;;;6341164;22;20022;-67
2023/12/21 08:35:23;;;;;;;33.90;17.52;;;5.20;73.40;;;;;;6341380;22;20007;-67
2023/12/21 08:37:49;;;;;;;33.65;20.88;;;5.30;73.40;;;;;;6341074;22;19995;-67
2023/12/21 08:40:15;;;;;;;45.42;24.83;;;5.40;73.20;;;;;;6341142;22;20048;-68
2023/12/21 08:42:41;;;;;;;39.45;23.10;;;5.50;73.00;;;;;;6341100;22;20006;-67
2023/12/21 08:45:08;;;;;;;37.80;20.95;;;5.70;73.00;;;;;;6341060;22;20002;-67
2023/12/21 08:47:40;;;;;;;33.08;18.00;;;5.80;73.00;;;;;;6341329;22;20003;-67
2023/12/21 08:50:08;;;;;;;29.23;16.33;;;5.90;72.80;;;;;;6341841;22;20384;-67
2023/12/21 08:52:36;;;;;;;24.48;14.23;;;6.00;72.40;;;;;;6342276;22;20277;-67
2023/12/21 08:55:03;;;;;;;29.95;17.55;;;6.10;72.10;;;;;;6343436;22;20044;-67
2023/12/21 08:57:29;;;;;;;29.05;18.40;;;6.20;72.30;;;;;;6316495;22;20385;-67
2023/12/21 08:59:55;;;;;;;40.83;23.23;;;6.40;71.80;;;;;;6343182;22;20002;-68
2023/12/21 09:02:22;;;;;;;23.52;13.88;;;6.40;71.60;;;;;;6343572;22;20010;-67
2023/12/21 09:04:48;;;;;;;23.65;13.32;;;6.60;71.40;;;;;;6315663;22;20003;-67
2023/12/21 09:07:14;;;;;;;27.98;14.10;;;6.60;70.90;;;;;;6343367;22;20116;-67
2023/12/21 09:09:41;;;;;;;21.17;13.05;;;6.60;70.30;;;;;;6343117;22;20002;-67
2023/12/21 09:12:07;;;;;;;22.67;13.07;;;6.70;70.20;;;;;;6343093;22;19999;-67
2023/12/21 09:14:33;;;;;;;24.58;13.00;;;6.80;70.30;;;;;;6343457;22;20044;-67
2023/12/21 09:16:59;;;;;;;24.33;14.30;;;6.80;69.70;;;;;;6342540;22;20010;-71
2023/12/21 09:19:25;;;;;;;27.52;15.07;;;6.90;69.40;;;;;;6342631;22;20006;-67
2023/12/21 09:21:51;;;;;;;33.08;15.77;;;6.90;69.60;;;;;;6344884;22;19998;-67
2023/12/21 09:24:18;;;;;;;30.63;14.73;;;6.90;69.70;;;;;;6348430;22;20419;-67
2023/12/21 09:26:44;;;;;;;31.42;17.10;;;7.00;70.00;;;;;;6348601;22;20031;-67
2023/12/21 09:29:10;;;;;;;31.30;15.73;;;7.10;70.20;;;;;;6348388;22;20066;-67
2023/12/21 09:31:39;;;;;;;25.52;14.15;;;7.20;69.90;;;;;;6348384;22;20003;-67
2023/12/21 09:34:07;;;;;;;32.33;14.10;;;7.30;69.80;;;;;;6320945;22;20009;-67
2023/12/21 09:36:33;;;;;;;24.30;14.35;;;7.40;69.70;;;;;;6348147;22;20086;-67
2023/12/21 09:38:59;;;;;;;34.22;18.02;;;7.60;69.40;;;;;;6346583;22;20057;-67
2023/12/21 09:41:25;;;;;;;32.25;17.02;;;7.70;68.00;;;;;;6315600;22;20320;-67
2023/12/21 09:43:53;;;;;;;25.17;13.43;;;7.80;67.70;;;;;;6342584;22;19999;-68
2023/12/21 09:46:23;;;;;;;23.25;13.30;;;7.80;67.30;;;;;;6342547;22;20003;-66
2023/12/21 09:48:50;;;;;;;26.92;15.23;;;7.80;66.80;;;;;;6342771;22;20026;-66
2023/12/21 09:51:17;;;;;;;24.45;13.95;;;7.90;67.40;;;;;;6343077;22;20010;-68
2023/12/21 09:53:43;;;;;;;28.17;15.90;;;7.90;66.90;;;;;;6315446;22;20484;-67
2023/12/21 09:56:13;;;;;;;25.52;13.80;;;8.00;66.70;;;;;;6342562;22;19999;-68
2023/12/21 09:58:41;;;;;;;24.80;14.90;;;8.10;67.00;;;;;;6343231;22;20389;-68
2023/12/21 10:01:07;;;;;;;23.63;13.05;;;8.20;65.80;;;;;;6342241;22;20005;-68
2023/12/21 10:03:34;;;;;;;18.27;11.07;;;8.30;66.20;;;;;;6319404;22;20022;-77
2023/12/21 10:06:03;;;;;;;23.42;12.27;;;8.40;66.50;;;;;;6361895;22;20054;-77
2023/12/21 10:08:33;;;;;;;19.83;12.27;;;8.50;65.80;;;;;;6362049;22;20009;-77
2023/12/21 10:11:02;;;;;;;21.30;11.82;;;8.60;65.30;;;;;;6361383;22;20010;-78
2023/12/21 10:13:28;;;;;;;19.48;10.50;;;8.70;65.70;;;;;;6316744;22;20022;-67
2023/12/21 10:18:30;;;;;;;18.20;11.00;;;8.90;65.40;;;;;;6313543;22;20423;-66
2023/12/21 10:20:56;;;;;;;22.48;11.25;;;8.90;64.80;;;;;;6342168;22;20006;-67
2023/12/21 10:23:24;;;;;;;18.05;11.73;;;8.90;64.20;;;;;;6342180;22;20010;-68
2023/12/21 10:25:52;;;;;;;20.80;11.73;;;9.00;64.40;;;;;;6342175;22;19995;-67
2023/12/21 10:28:22;;;;;;;22.10;11.50;;;9.00;64.70;;;;;;6314801;22;20315;-67
2023/12/21 10:30:57;;;;;;;20.95;11.20;;;9.10;65.20;;;;;;6342391;22;19995;-68
2023/12/21 10:33:25;;;;;;;24.40;11.40;;;9.10;64.90;;;;;;6342492;22;20054;-68
2023/12/21 10:35:52;;;;;;;22.48;12.50;;;9.10;64.70;;;;;;6341969;22;20006;-69
2023/12/21 10:38:19;;;;;;;25.00;13.30;;;9.10;65.10;;;;;;6342271;22;20006;-68
2023/12/21 10:40:46;;;;;;;25.48;14.20;;;9.20;65.10;;;;;;6342006;22;20280;-68
2023/12/21 10:43:17;;;;;;;24.92;13.10;;;9.20;65.40;;;;;;6342259;22;19995;-68
2023/12/21 10:45:45;;;;;;;26.73;13.98;;;9.20;65.50;;;;;;6342180;22;20003;-68
2023/12/21 10:48:16;;;;;;;24.40;13.40;;;9.20;65.50;;;;;;6342106;22;20389;-67
2023/12/21 10:50:52;;;;;;;29.83;14.77;;;9.20;65.70;;;;;;6316269;22;20006;-67
2023/12/21 10:53:22;;;;;;;30.30;14.45;;;9.20;65.70;;;;;;6341733;22;20085;-66
2023/12/21 10:55:49;;;;;;;34.92;15.35;;;9.20;65.40;;;;;;6342081;22;20010;-68
2023/12/21 10:58:16;;;;;;;28.92;15.80;;;9.20;65.60;;;;;;6341703;22;20002;-68
2023/12/21 11:00:43;;;;;;;35.15;16.73;;;9.20;65.70;;;;;;6341810;22;20384;-67
2023/12/21 11:03:16;;;;;;;28.30;15.32;;;9.20;65.90;;;;;;6341728;22;19998;-67
2023/12/21 11:05:44;;;;;;;27.58;14.38;;;9.20;65.90;;;;;;6314588;22;20342;-67
2023/12/21 11:08:10;;;;;;;26.77;13.57;;;9.20;65.80;;;;;;6341566;22;20009;-68
2023/12/21 11:10:38;;;;;;;31.52;15.68;;;9.30;65.80;;;;;;6341605;22;20075;-67
2023/12/21 11:13:04;;;;;;;33.20;18.15;;;9.30;65.90;;;;;;6341640;22;20002;-69
2023/12/21 11:15:31;;;;;;;33.22;17.02;;;9.30;66.20;;;;;;6342141;22;20038;-67
2023/12/21 11:18:07;;;;;;;28.55;15.80;;;9.40;66.10;;;;;;6341181;22;20014;-67
2023/12/21 11:20:40;;;;;;;32.08;16.52;;;9.40;66.20;;;;;;6342206;22;19994;-66
2023/12/21 11:23:06;;;;;;;26.15;13.55;;;9.40;66.20;;;;;;6342342;22;20073;-68
2023/12/21 11:25:33;;;;;;;30.65;15.25;;;9.40;66.20;;;;;;6341569;22;19998;-67
2023/12/21 11:28:04;;;;;;;29.30;15.73;;;9.40;66.10;;;;;;6341466;22;19998;-67
2023/12/21 11:30:33;;;;;;;25.08;15.63;;;9.40;66.20;;;;;;6341865;22;20102;-67
2023/12/21 11:33:06;;;;;;;31.42;15.60;;;9.40;66.30;;;;;;6314092;22;20002;-67
2023/12/21 11:35:32;;;;;;;;;;;9.40;66.40;;;;;;6341841;22;19998;-68
2023/12/21 11:38:01;;;;;;;24.80;14.15;;;9.40;66.30;;;;;;6342097;22;19898;-68
2023/12/21 11:40:29;;;;;;;27.70;14.88;;;9.40;66.30;;;;;;6342119;22;20296;-68
2023/12/21 11:42:57;;;;;;;26.05;15.60;;;9.40;66.50;;;;;;6341402;22;19998;-68
2023/12/21 11:45:26;;;;;;;23.33;13.13;;;9.40;66.30;;;;;;6341696;22;20052;-68
2023/12/21 11:47:56;;;;;;;23.95;13.65;;;9.40;66.20;;;;;;6341631;22;20392;-67
2023/12/21 11:50:26;;;;;;;23.30;14.20;;;9.40;66.10;;;;;;6341780;22;20010;-67
2023/12/21 11:53:10;;;;;;;22.40;13.13;;;9.30;65.50;;;;;;6341752;22;20002;-68
2023/12/21 11:55:44;;;;;;;26.65;14.27;;;9.20;65.90;;;;;;6342050;22;20067;-68
2023/12/21 11:58:18;;;;;;;26.17;13.90;;;9.20;65.80;;;;;;6341626;22;20006;-68
2023/12/21 12:00:56;;;;;;;23.55;13.90;;;9.10;66.10;;;;;;6341386;22;20007;-68
2023/12/21 12:03:26;;;;;;;29.77;16.15;;;9.10;65.70;;;;;;6314911;22;20266;-67
2023/12/21 12:05:59;;;;;;;29.98;16.45;;;9.10;65.90;;;;;;6341580;22;20022;-68
2023/12/21 12:08:25;;;;;;;26.23;13.85;;;9.10;66.20;;;;;;6341913;22;19998;-67
2023/12/21 12:10:57;;;;;;;26.83;14.45;;;9.10;66.40;;;;;;6341323;22;19999;-67
2023/12/21 12:13:23;;;;;;;28.77;15.90;;;9.10;66.70;;;;;;6342018;22;20003;-67
2023/12/21 12:15:52;;;;;;;31.52;16.02;;;9.10;66.50;;;;;;6341186;22;20006;-67
2023/12/21 12:18:22;;;;;;;31.13;16.33;;;9.20;65.90;;;;;;6341097;22;20018;-66
2023/12/21 12:20:50;;;;;;;30.85;16.63;;;9.20;66.10;;;;;;6314219;22;20001;-68
2023/12/21 12:23:16;;;;;;;30.40;17.77;;;9.20;65.90;;;;;;6341898;22;20376;-68
2023/12/21 12:25:45;;;;;;;29.75;18.23;;;9.20;66.50;;;;;;6341264;22;19999;-67
2023/12/21 12:28:12;;;;;;;28.42;16.45;;;9.20;66.70;;;;;;6342906;22;20026;-68
2023/12/21 12:30:39;;;;;;;28.70;16.88;;;9.20;66.80;;;;;;6343179;22;20048;-67
2023/12/21 12:33:05;;;;;;;26.83;17.10;;;9.20;67.10;;;;;;6343141;22;19999;-67
2023/12/21 12:35:32;;;;;;;30.10;16.45;;;9.20;67.20;;;;;;6342834;22;20007;-67
2023/12/21 12:37:59;;;;;;;28.05;16.55;;;9.20;67.20;;;;;;6342977;22;19999;-68
2023/12/21 12:40:25;;;;;;;26.70;15.80;;;9.20;67.10;;;;;;6315789;22;20022;-67